createdAt,value
2019-01-25T00:02:09.331Z,237.83
2019-01-25T00:04:45.527Z,235.97
2019-01-25T00:07:22.242Z,247.90
2019-01-25T00:09:59.032Z,229.07
2019-01-25T00:12:35.999Z,208.17
2019-01-25T00:15:12.884Z,220.33
2019-01-25T00:17:50.399Z,204.47
2019-01-25T00:20:27.902Z,194.70
2019-01-25T00:23:05.032Z,196.20
2019-01-25T00:25:41.917Z,195.17
2019-01-25T00:28:19.081Z,245.53
2019-01-25T00:30:55.551Z,234.03
2019-01-25T00:33:32.312Z,178.63
2019-01-25T00:36:09.334Z,162.20
2019-01-25T00:38:46.348Z,144.23
2019-01-25T00:41:22.894Z,134.23
2019-01-25T00:43:59.615Z,129.57
2019-01-25T00:46:36.074Z,189.83
2019-01-25T00:49:12.967Z,139.40
2019-01-25T00:51:49.599Z,153.17
2019-01-25T00:54:26.584Z,144.27
2019-01-25T00:57:04.484Z,144.10
2019-01-25T00:59:41.559Z,142.72
2019-01-25T01:02:18.372Z,144.97
2019-01-25T01:04:55.375Z,152.15
2019-01-25T01:07:32.017Z,175.95
2019-01-25T01:10:14.027Z,154.07
2019-01-25T01:12:47.266Z,159.82
2019-01-25T01:15:24.419Z,136.67
2019-01-25T01:18:00.762Z,136.65
2019-01-25T01:20:37.578Z,135.40
2019-01-25T01:23:14.240Z,123.07
2019-01-25T01:25:52.623Z,116.97
2019-01-25T01:28:30.417Z,104.90
2019-01-25T01:31:06.823Z,117.60
2019-01-25T01:33:43.601Z,110.57
2019-01-25T01:36:20.028Z,105.00
2019-01-25T01:38:57.059Z,87.20
2019-01-25T01:41:34.591Z,142.30
2019-01-25T01:44:11.320Z,83.50
2019-01-25T01:46:48.122Z,83.55
2019-01-25T01:49:25.034Z,68.78
2019-01-25T01:52:01.416Z,67.15
2019-01-25T01:54:38.325Z,65.78
2019-01-25T01:57:15.075Z,68.20
2019-01-25T01:59:51.794Z,61.20
2019-01-25T02:02:31.045Z,64.27
2019-01-25T02:05:08.113Z,65.10
2019-01-25T02:07:44.580Z,68.37
2019-01-25T02:10:29.202Z,69.67
2019-01-25T02:13:01.930Z,71.02
2019-01-25T02:15:40.838Z,70.00
2019-01-25T02:18:20.889Z,70.75
2019-01-25T02:21:01.136Z,67.67
2019-01-25T02:23:37.950Z,76.90
2019-01-25T02:26:15.693Z,357.15
2019-01-25T02:28:52.425Z,97.97
2019-01-25T02:31:29.121Z,58.05
2019-01-25T02:34:05.733Z,64.07
2019-01-25T02:36:43.747Z,56.33
2019-01-25T02:39:20.330Z,46.65
2019-01-25T02:41:57.212Z,45.10
2019-01-25T02:44:33.903Z,41.80
2019-01-25T02:47:12.781Z,48.92
2019-01-25T02:49:49.781Z,44.48
2019-01-25T02:52:26.663Z,50.52
2019-01-25T02:55:03.215Z,45.43
2019-01-25T02:57:39.996Z,48.65
2019-01-25T03:00:26.184Z,54.18
2019-01-25T03:03:02.951Z,52.48
2019-01-25T03:05:39.612Z,46.10
2019-01-25T03:08:16.164Z,50.48
2019-01-25T03:10:52.960Z,45.85
2019-01-25T03:13:29.230Z,46.23
2019-01-25T03:16:06.308Z,49.45
2019-01-25T03:18:42.673Z,47.70
2019-01-25T03:21:19.496Z,45.95
2019-01-25T03:23:55.906Z,50.28
2019-01-25T03:26:33.607Z,39.83
2019-01-25T03:29:10.353Z,43.28
2019-01-25T03:31:47.354Z,48.02
2019-01-25T03:34:23.975Z,41.05
2019-01-25T03:37:00.625Z,44.35
2019-01-25T03:39:37.648Z,35.75
2019-01-25T03:42:14.137Z,39.92
2019-01-25T03:44:50.727Z,45.25
2019-01-25T03:47:27.724Z,37.78
2019-01-25T03:50:04.951Z,38.25
2019-01-25T03:52:41.402Z,43.85
2019-01-25T03:55:19.209Z,38.10
2019-01-25T03:57:57.111Z,37.35
2019-01-25T04:00:34.861Z,33.95
2019-01-25T04:03:11.686Z,45.98
2019-01-25T04:05:48.206Z,35.13
2019-01-25T04:08:26.096Z,33.08
2019-01-25T04:11:03.989Z,32.15
2019-01-25T04:13:40.959Z,33.23
2019-01-25T04:16:17.614Z,37.20
2019-01-25T04:18:54.208Z,38.40
2019-01-25T04:21:31.022Z,31.35
2019-01-25T04:24:07.795Z,30.27
2019-01-25T04:26:44.355Z,31.82
2019-01-25T04:29:21.679Z,28.73
2019-01-25T04:31:58.451Z,30.23
2019-01-25T04:34:35.040Z,32.85
2019-01-25T04:37:12.182Z,31.73
2019-01-25T04:39:49.223Z,32.05
2019-01-25T04:42:26.753Z,29.15
2019-01-25T04:45:03.884Z,29.70
2019-01-25T04:47:40.540Z,29.92
2019-01-25T04:50:19.890Z,29.12
2019-01-25T04:52:56.734Z,25.97
2019-01-25T04:55:49.834Z,27.02
2019-01-25T04:58:26.943Z,27.73
2019-01-25T05:01:10.687Z,31.95
2019-01-25T05:03:47.550Z,29.87
2019-01-25T05:06:24.719Z,24.77
2019-01-25T05:09:01.170Z,24.85
2019-01-25T05:11:39.573Z,25.75
2019-01-25T05:14:16.264Z,25.50
2019-01-25T05:16:52.749Z,27.60
2019-01-25T05:19:29.136Z,24.67
2019-01-25T05:22:06.392Z,23.15
2019-01-25T05:24:43.229Z,23.70
2019-01-25T05:27:20.265Z,25.05
2019-01-25T05:29:58.680Z,25.85
2019-01-25T05:32:35.650Z,31.12
2019-01-25T05:35:12.499Z,25.57
2019-01-25T05:37:49.469Z,26.62
2019-01-25T05:40:27.639Z,25.82
2019-01-25T05:43:04.144Z,25.80
2019-01-25T05:45:46.378Z,24.67
2019-01-25T05:48:23.430Z,29.25
2019-01-25T05:51:04.216Z,24.57
2019-01-25T05:53:41.276Z,25.23
2019-01-25T05:56:18.108Z,27.82
2019-01-25T05:58:54.862Z,23.52
2019-01-25T06:01:31.555Z,23.40
2019-01-25T06:04:08.392Z,24.05
2019-01-25T06:06:45.128Z,27.00
2019-01-25T06:09:26.405Z,25.37
2019-01-25T06:12:02.878Z,24.40
2019-01-25T06:14:39.473Z,28.17
2019-01-25T06:17:15.913Z,26.77
2019-01-25T06:19:52.845Z,23.75
2019-01-25T06:22:29.732Z,24.52
2019-01-25T06:25:06.918Z,21.17
2019-01-25T06:28:00.094Z,48.85
2019-01-25T06:30:37.376Z,28.30
2019-01-25T06:33:14.056Z,22.05
2019-01-25T06:35:50.622Z,25.88
2019-01-25T06:38:27.344Z,26.87
2019-01-25T06:41:03.816Z,20.55
2019-01-25T06:43:40.596Z,27.05
2019-01-25T06:46:17.625Z,25.57
2019-01-25T06:48:54.290Z,24.85
2019-01-25T06:51:32.025Z,23.67
2019-01-25T06:54:08.712Z,26.50
2019-01-25T06:56:45.184Z,25.77
2019-01-25T06:59:27.693Z,27.98
2019-01-25T07:02:20.844Z,27.13
2019-01-25T07:04:57.691Z,20.57
2019-01-25T07:07:36.306Z,27.07
2019-01-25T07:10:16.615Z,22.90
2019-01-25T07:12:53.297Z,26.60
2019-01-25T07:15:30.065Z,26.40
2019-01-25T07:18:07.231Z,27.98
2019-01-25T07:20:43.526Z,29.65
2019-01-25T07:23:20.492Z,26.25
2019-01-25T07:25:57.249Z,22.42
2019-01-25T07:28:34.077Z,26.73
2019-01-25T07:31:11.182Z,27.73
2019-01-25T07:33:48.073Z,25.48
2019-01-25T07:36:24.628Z,31.55
2019-01-25T07:39:01.406Z,31.27
2019-01-25T07:41:39.392Z,27.42
2019-01-25T07:44:15.901Z,24.52
2019-01-25T07:46:52.700Z,25.20
2019-01-25T07:49:29.137Z,31.45
2019-01-25T07:52:07.362Z,23.67
2019-01-25T07:54:44.126Z,32.60
2019-01-25T07:57:20.823Z,24.47
2019-01-25T07:59:57.027Z,31.68
2019-01-25T08:02:33.596Z,28.23
2019-01-25T08:05:10.713Z,20.55
2019-01-25T08:07:47.669Z,24.92
2019-01-25T08:10:24.226Z,41.77
2019-01-25T08:13:02.254Z,26.45
2019-01-25T08:15:38.965Z,21.37
2019-01-25T08:18:15.680Z,22.05
2019-01-25T08:20:52.893Z,26.70
2019-01-25T08:23:29.870Z,25.15
2019-01-25T08:26:06.516Z,23.62
2019-01-25T08:28:43.265Z,22.32
2019-01-25T08:31:20.865Z,37.93
2019-01-25T08:33:57.502Z,22.67
2019-01-25T08:36:34.349Z,19.82
2019-01-25T08:39:14.226Z,28.70
2019-01-25T08:41:51.168Z,27.42
2019-01-25T08:44:28.954Z,35.78
2019-01-25T08:47:05.857Z,24.43
2019-01-25T08:49:42.533Z,22.22
2019-01-25T08:52:19.326Z,22.65
2019-01-25T08:54:56.176Z,19.17
2019-01-25T08:57:32.605Z,23.38
2019-01-25T09:00:11.107Z,25.08
2019-01-25T09:02:48.075Z,39.80
2019-01-25T09:05:25.293Z,19.32
2019-01-25T09:08:01.540Z,21.70
2019-01-25T09:10:38.739Z,19.17
2019-01-25T09:13:17.975Z,20.80
2019-01-25T09:15:54.948Z,28.07
2019-01-25T09:18:31.643Z,22.22
2019-01-25T09:21:08.449Z,18.92
2019-01-25T09:23:45.004Z,22.90
2019-01-25T09:26:21.875Z,22.70
2019-01-25T09:28:58.697Z,19.15
2019-01-25T09:31:35.199Z,28.12
2019-01-25T09:34:12.430Z,17.90
2019-01-25T09:36:49.263Z,25.97
2019-01-25T09:39:26.762Z,21.90
2019-01-25T09:42:03.832Z,17.20
2019-01-25T09:44:40.804Z,23.22
2019-01-25T09:47:17.823Z,23.90
2019-01-25T09:49:55.303Z,19.75
2019-01-25T09:52:32.277Z,23.02
2019-01-25T09:55:09.283Z,20.10
2019-01-25T09:57:46.032Z,24.30
2019-01-25T10:00:29.747Z,64.22
2019-01-25T10:03:06.675Z,19.62
2019-01-25T10:05:43.622Z,23.75
2019-01-25T10:08:20.488Z,24.65
2019-01-25T10:10:56.995Z,25.48
2019-01-25T10:13:34.179Z,23.05
2019-01-25T10:16:10.834Z,24.30
2019-01-25T10:18:48.528Z,23.83
2019-01-25T10:21:25.108Z,23.22
2019-01-25T10:24:02.781Z,23.25
2019-01-25T10:26:40.356Z,34.03
2019-01-25T10:29:20.033Z,32.60
2019-01-25T10:31:55.140Z,26.60
2019-01-25T10:34:32.237Z,34.27
2019-01-25T10:37:10.038Z,32.50
2019-01-25T10:39:46.887Z,25.77
2019-01-25T10:42:23.915Z,31.17
2019-01-25T10:45:04.456Z,44.88
2019-01-25T10:47:39.686Z,45.10
2019-01-25T10:50:16.720Z,41.13
2019-01-25T10:52:53.616Z,36.60
2019-01-25T10:55:30.149Z,38.13
2019-01-25T10:58:07.157Z,39.48
2019-01-25T11:00:43.839Z,35.40
2019-01-25T11:03:21.028Z,39.40
2019-01-25T11:05:57.494Z,47.43
2019-01-25T11:08:34.061Z,36.77
2019-01-25T11:11:10.957Z,44.80
2019-01-25T11:13:47.602Z,55.30
2019-01-25T11:16:24.738Z,51.42
2019-01-25T11:19:01.533Z,44.98
2019-01-25T11:21:38.598Z,36.55
2019-01-25T11:24:15.422Z,37.75
2019-01-25T11:26:51.861Z,44.33
2019-01-25T11:29:31.285Z,30.45
2019-01-25T11:32:08.534Z,33.25
2019-01-25T11:34:44.985Z,31.75
2019-01-25T11:37:22.198Z,28.92
2019-01-25T11:39:58.518Z,35.58
2019-01-25T11:42:35.496Z,44.33
2019-01-25T11:45:12.428Z,44.83
2019-01-25T11:47:49.515Z,43.45
2019-01-25T11:50:26.554Z,59.08
2019-01-25T11:53:03.848Z,66.40
2019-01-25T11:55:40.504Z,56.42
2019-01-25T11:58:17.279Z,63.10
2019-01-25T12:00:53.906Z,71.70
2019-01-25T12:03:30.979Z,67.87
2019-01-25T12:06:08.844Z,72.20
2019-01-25T12:08:46.090Z,71.28
2019-01-25T12:11:22.805Z,68.78
2019-01-25T12:13:59.655Z,60.45
2019-01-25T12:16:36.354Z,66.35
2019-01-25T12:19:13.374Z,60.60
2019-01-25T12:21:49.672Z,51.90
2019-01-25T12:24:26.592Z,54.63
2019-01-25T12:27:04.033Z,58.90
2019-01-25T12:29:40.704Z,58.48
2019-01-25T12:32:17.983Z,68.20
2019-01-25T12:34:54.822Z,74.70
2019-01-25T12:37:31.430Z,64.70
2019-01-25T12:40:08.893Z,74.47
2019-01-25T12:42:46.297Z,71.60
2019-01-25T12:45:25.185Z,74.30
2019-01-25T12:48:02.186Z,70.62
2019-01-25T12:51:09.895Z,76.12
2019-01-25T12:53:47.111Z,69.90
2019-01-25T12:56:24.609Z,69.03
2019-01-25T12:59:00.979Z,72.92
2019-01-25T13:01:37.938Z,72.67
2019-01-25T13:04:14.908Z,63.70
2019-01-25T13:06:52.428Z,68.17
2019-01-25T13:09:29.416Z,79.32
2019-01-25T13:12:10.072Z,79.07
2019-01-25T13:14:47.453Z,83.72
2019-01-25T13:17:24.862Z,88.03
2019-01-25T13:20:02.089Z,92.40
2019-01-25T13:22:39.495Z,97.42
2019-01-25T13:25:18.770Z,99.17
2019-01-25T13:27:55.580Z,108.57
2019-01-25T13:30:33.765Z,97.05
2019-01-25T13:33:11.106Z,100.78
2019-01-25T13:35:48.500Z,101.40
2019-01-25T13:38:25.070Z,93.60
2019-01-25T13:41:01.966Z,96.30
2019-01-25T13:43:39.341Z,90.20
2019-01-25T13:46:17.147Z,96.63
2019-01-25T13:48:53.610Z,92.08
2019-01-25T13:51:30.213Z,99.97
2019-01-25T13:54:09.637Z,92.17
2019-01-25T13:56:49.440Z,96.47
2019-01-25T13:59:26.454Z,95.03
2019-01-25T14:02:03.721Z,104.90
2019-01-25T14:04:40.132Z,109.22
2019-01-25T14:07:21.032Z,102.42
2019-01-25T14:09:56.261Z,116.08
2019-01-25T14:12:33.398Z,103.97
2019-01-25T14:15:14.038Z,101.80
2019-01-25T14:17:50.590Z,104.58
2019-01-25T14:20:29.909Z,125.02
2019-01-25T14:23:06.823Z,105.12
2019-01-25T14:25:45.426Z,116.05
2019-01-25T14:28:22.661Z,111.57
2019-01-25T14:31:01.200Z,115.75
2019-01-25T14:33:38.217Z,112.68
2019-01-25T14:36:15.441Z,114.37
2019-01-25T14:38:53.637Z,123.78
2019-01-25T14:41:34.880Z,115.65
2019-01-25T14:44:12.082Z,113.72
2019-01-25T14:46:50.108Z,127.02
2019-01-25T14:49:27.238Z,116.95
2019-01-25T14:52:03.827Z,147.93
2019-01-25T14:54:41.129Z,166.43
2019-01-25T14:57:18.376Z,181.90
2019-01-25T14:59:55.172Z,194.95
2019-01-25T15:02:33.169Z,143.85
2019-01-25T15:05:12.442Z,131.57
2019-01-25T15:07:49.966Z,115.90
2019-01-25T15:10:27.660Z,113.08
2019-01-25T15:13:05.272Z,113.37
2019-01-25T15:15:44.893Z,121.13
2019-01-25T15:18:21.486Z,104.53
2019-01-25T15:20:58.036Z,109.72
2019-01-25T15:23:34.943Z,117.77
2019-01-25T15:26:11.221Z,111.35
2019-01-25T15:28:47.833Z,133.18
2019-01-25T15:31:25.040Z,124.67
2019-01-25T15:34:02.143Z,154.57
2019-01-25T15:36:39.047Z,155.82
2019-01-25T15:39:16.681Z,164.13
2019-01-25T15:41:53.712Z,168.68
2019-01-25T15:44:30.426Z,157.20
2019-01-25T15:47:07.179Z,160.10
2019-01-25T15:49:44.124Z,153.20
2019-01-25T15:52:20.770Z,174.97
2019-01-25T15:54:57.744Z,152.10
2019-01-25T15:57:34.410Z,154.30
2019-01-25T16:00:17.065Z,140.37
2019-01-25T16:02:53.890Z,141.97
2019-01-25T16:05:31.299Z,130.97
2019-01-25T16:08:08.715Z,119.13
2019-01-25T16:10:45.540Z,119.37
2019-01-25T16:13:22.016Z,107.03
2019-01-25T16:15:58.508Z,99.85
2019-01-25T16:18:35.772Z,93.20
2019-01-25T16:21:12.820Z,82.95
2019-01-25T16:23:49.875Z,85.15
2019-01-25T16:26:26.559Z,81.57
2019-01-25T16:29:03.864Z,69.40
2019-01-25T16:31:40.479Z,55.15
2019-01-25T16:34:17.666Z,51.42
2019-01-25T16:36:54.964Z,45.38
2019-01-25T16:39:31.747Z,53.60
2019-01-25T16:42:09.135Z,47.40
2019-01-25T16:44:46.791Z,44.35
2019-01-25T16:47:24.373Z,48.13
2019-01-25T16:50:01.547Z,42.93
2019-01-25T16:52:38.670Z,44.77
2019-01-25T16:55:16.344Z,47.73
2019-01-25T16:57:53.028Z,48.90
2019-01-25T17:00:35.849Z,47.53
2019-01-25T17:03:13.721Z,45.60
2019-01-25T17:05:53.964Z,40.15
2019-01-25T17:08:31.619Z,45.78
2019-01-25T17:11:08.988Z,42.58
2019-01-25T17:13:45.639Z,45.20
2019-01-25T17:16:22.338Z,43.02
2019-01-25T17:18:59.268Z,44.93
2019-01-25T17:21:36.212Z,37.73
2019-01-25T17:24:14.221Z,39.70
2019-01-25T17:26:51.022Z,45.80
2019-01-25T17:29:28.117Z,40.38
2019-01-25T17:32:05.603Z,38.67
2019-01-25T17:34:42.398Z,40.08
2019-01-25T17:37:19.303Z,39.30
2019-01-25T17:39:56.506Z,41.95
2019-01-25T17:42:33.987Z,35.80
2019-01-25T17:45:11.703Z,36.88
2019-01-25T17:47:48.283Z,41.58
2019-01-25T17:50:25.341Z,34.53
2019-01-25T17:53:02.206Z,34.43
2019-01-25T17:55:39.320Z,35.28
2019-01-25T17:58:18.783Z,35.83
2019-01-25T18:00:59.625Z,29.87
2019-01-25T18:03:36.636Z,39.20
2019-01-25T18:06:13.138Z,33.15
2019-01-25T18:08:49.999Z,35.60
2019-01-25T18:11:26.657Z,36.15
2019-01-25T18:14:03.299Z,32.83
2019-01-25T18:16:39.654Z,30.72
2019-01-25T18:19:17.306Z,30.05
2019-01-25T18:21:54.149Z,32.17
2019-01-25T18:24:31.421Z,33.83
2019-01-25T18:27:08.559Z,30.68
2019-01-25T18:29:54.473Z,29.05
2019-01-25T18:32:31.486Z,31.37
2019-01-25T18:35:08.274Z,34.30
2019-01-25T18:37:45.981Z,25.95
2019-01-25T18:40:22.743Z,29.72
2019-01-25T18:42:59.678Z,26.35
2019-01-25T18:45:35.853Z,27.13
2019-01-25T18:48:14.352Z,25.40
2019-01-25T18:50:50.896Z,30.95
2019-01-25T18:53:27.835Z,28.90
2019-01-25T18:56:04.644Z,31.60
2019-01-25T18:58:41.866Z,30.15
2019-01-25T19:01:18.660Z,26.20
2019-01-25T19:03:55.682Z,29.80
2019-01-25T19:06:32.549Z,25.02
2019-01-25T19:09:11.813Z,27.82
2019-01-25T19:11:48.084Z,26.25
2019-01-25T19:14:25.409Z,28.47
2019-01-25T19:17:02.301Z,26.17
2019-01-25T19:19:42.642Z,32.63
2019-01-25T19:22:19.430Z,22.42
2019-01-25T19:24:56.380Z,25.72
2019-01-25T19:27:33.172Z,26.17
2019-01-25T19:30:14.514Z,26.77
2019-01-25T19:32:50.995Z,25.30
2019-01-25T19:35:27.864Z,22.27
2019-01-25T19:38:04.901Z,26.55
2019-01-25T19:40:41.836Z,24.07
2019-01-25T19:43:18.439Z,24.63
2019-01-25T19:45:55.239Z,21.25
2019-01-25T19:48:32.556Z,23.18
2019-01-25T19:51:09.256Z,20.48
2019-01-25T19:53:45.868Z,28.40
2019-01-25T19:56:22.720Z,23.98
2019-01-25T19:58:59.367Z,23.40
2019-01-25T20:01:36.105Z,21.17
2019-01-25T20:04:12.954Z,23.15
2019-01-25T20:06:49.805Z,23.87
2019-01-25T20:09:26.319Z,23.62
2019-01-25T20:12:03.439Z,27.25
2019-01-25T20:14:40.446Z,28.85
2019-01-25T20:17:16.928Z,27.73
2019-01-25T20:19:54.152Z,29.10
2019-01-25T20:22:31.160Z,28.35
2019-01-25T20:25:07.882Z,25.20
2019-01-25T20:27:44.378Z,29.40
2019-01-25T20:30:32.557Z,24.25
2019-01-25T20:33:09.581Z,25.25
2019-01-25T20:35:47.408Z,30.32
2019-01-25T20:38:24.036Z,27.60
2019-01-25T20:41:01.098Z,22.67
2019-01-25T20:43:38.044Z,23.80
2019-01-25T20:46:14.962Z,23.83
2019-01-25T20:48:51.597Z,23.65
2019-01-25T20:51:28.876Z,23.98
2019-01-25T20:54:05.527Z,23.83
2019-01-25T20:56:42.110Z,22.67
2019-01-25T20:59:19.246Z,22.80
2019-01-25T21:01:55.478Z,24.92
2019-01-25T21:04:32.524Z,29.55
2019-01-25T21:07:09.325Z,24.95
2019-01-25T21:09:46.078Z,23.83
2019-01-25T21:12:22.740Z,21.60
2019-01-25T21:15:00.338Z,24.52
2019-01-25T21:17:37.036Z,26.35
2019-01-25T21:20:21.060Z,24.80
2019-01-25T21:22:57.621Z,26.90
2019-01-25T21:25:34.400Z,21.68
2019-01-25T21:28:11.575Z,22.98
2019-01-25T21:30:47.841Z,25.62
2019-01-25T21:33:24.439Z,25.05
2019-01-25T21:36:01.373Z,21.45
2019-01-25T21:38:38.165Z,20.57
2019-01-25T21:41:14.615Z,20.55
2019-01-25T21:43:51.694Z,24.05
2019-01-25T21:46:28.578Z,25.00
2019-01-25T21:49:05.372Z,23.92
2019-01-25T21:51:41.601Z,24.32
2019-01-25T21:54:18.863Z,24.25
2019-01-25T21:56:55.402Z,21.57
2019-01-25T21:59:32.280Z,27.87
2019-01-25T22:02:08.872Z,24.12
2019-01-25T22:04:45.909Z,24.25
2019-01-25T22:07:23.012Z,26.55
2019-01-25T22:10:00.596Z,28.60
2019-01-25T22:12:39.181Z,28.75
2019-01-25T22:15:16.818Z,25.50
2019-01-25T22:17:53.517Z,30.77
2019-01-25T22:20:31.855Z,26.90
2019-01-25T22:23:09.103Z,25.70
2019-01-25T22:25:46.486Z,22.02
2019-01-25T22:28:23.275Z,23.75
2019-01-25T22:31:00.132Z,23.65
2019-01-25T22:33:36.858Z,25.30
2019-01-25T22:36:13.860Z,23.38
2019-01-25T22:38:51.487Z,26.35
2019-01-25T22:41:28.660Z,26.80
2019-01-25T22:44:06.189Z,25.32
2019-01-25T22:46:42.783Z,21.30
2019-01-25T22:49:19.562Z,24.70
2019-01-25T22:51:56.093Z,29.30
2019-01-25T22:54:33.345Z,32.20
2019-01-25T22:57:10.153Z,33.78
2019-01-25T22:59:47.149Z,28.98
2019-01-25T23:02:23.847Z,33.55
2019-01-25T23:05:34.466Z,28.00
2019-01-25T23:08:11.163Z,32.67
2019-01-25T23:10:48.279Z,27.32
2019-01-25T23:13:25.101Z,29.63
2019-01-25T23:16:06.318Z,28.60
2019-01-25T23:18:39.610Z,29.07
2019-01-25T23:21:16.614Z,31.12
2019-01-25T23:23:53.365Z,30.55
2019-01-25T23:26:29.817Z,42.13
2019-01-25T23:29:06.574Z,30.82
2019-01-25T23:31:44.318Z,29.37
2019-01-25T23:34:21.281Z,58.20
2019-01-25T23:36:57.806Z,32.78
2019-01-25T23:39:34.654Z,29.30
2019-01-25T23:42:11.534Z,34.47
2019-01-25T23:44:48.207Z,30.08
2019-01-25T23:47:24.963Z,38.53
2019-01-25T23:50:01.870Z,34.78
2019-01-25T23:52:38.598Z,32.38
2019-01-25T23:55:15.643Z,31.25
2019-01-25T23:57:52.462Z,31.45
